sensor_id;sensor_type;location;lat;lon;timestamp;P1;durP1;ratioP1;P2;durP2;ratioP2
42600;SDS011;28229;48.856;9.088;2022-09-09T00:02:17;2.00;;;1.40;;
42600;SDS011;28229;48.856;9.088;2022-09-09T00:04:48;2.50;;;1.20;;
42600;SDS011;28229;48.856;9.088;2022-09-09T00:07:40;3.17;;;1.50;;
42600;SDS011;28229;48.856;9.088;2022-09-09T00:13:13;3.40;;;1.47;;
42600;SDS011;28229;48.856;9.088;2022-09-09T00:16:02;2.97;;;1.23;;
42600;SDS011;28229;48.856;9.088;2022-09-09T00:21:13;2.33;;;1.20;;
42600;SDS011;28229;48.856;9.088;2022-09-09T00:23:44;2.20;;;1.20;;
42600;SDS011;28229;48.856;9.088;2022-09-09T00:26:16;2.93;;;1.27;;
42600;SDS011;28229;48.856;9.088;2022-09-09T00:28:45;3.33;;;1.30;;
42600;SDS011;28229;48.856;9.088;2022-09-09T00:31:28;2.73;;;1.10;;
42600;SDS011;28229;48.856;9.088;2022-09-09T00:33:57;1.40;;;1.20;;
42600;SDS011;28229;48.856;9.088;2022-09-09T00:36:28;2.93;;;1.10;;
42600;SDS011;28229;48.856;9.088;2022-09-09T00:39:02;1.83;;;1.10;;
42600;SDS011;28229;48.856;9.088;2022-09-09T00:41:37;2.80;;;1.47;;
42600;SDS011;28229;48.856;9.088;2022-09-09T00:44:36;2.87;;;1.10;;
42600;SDS011;28229;48.856;9.088;2022-09-09T00:47:04;2.13;;;1.10;;
42600;SDS011;28229;48.856;9.088;2022-09-09T00:57:37;2.67;;;1.20;;
42600;SDS011;28229;48.856;9.088;2022-09-09T01:00:23;2.57;;;1.10;;
42600;SDS011;28229;48.856;9.088;2022-09-09T01:03:02;4.53;;;1.37;;
42600;SDS011;28229;48.856;9.088;2022-09-09T01:05:36;2.43;;;1.10;;
42600;SDS011;28229;48.856;9.088;2022-09-09T01:11:00;1.60;;;1.33;;
42600;SDS011;28229;48.856;9.088;2022-09-09T01:13:30;3.00;;;1.17;;
42600;SDS011;28229;48.856;9.088;2022-09-09T01:16:03;2.80;;;1.20;;
42600;SDS011;28229;48.856;9.088;2022-09-09T01:18:37;2.53;;;1.20;;
42600;SDS011;28229;48.856;9.088;2022-09-09T01:21:14;1.30;;;1.17;;
42600;SDS011;28229;48.856;9.088;2022-09-09T01:24:00;2.43;;;1.20;;
42600;SDS011;28229;48.856;9.088;2022-09-09T01:27:00;1.93;;;1.07;;
42600;SDS011;28229;48.856;9.088;2022-09-09T01:29:29;1.73;;;1.10;;
42600;SDS011;28229;48.856;9.088;2022-09-09T01:31:57;1.93;;;1.10;;
42600;SDS011;28229;48.856;9.088;2022-09-09T01:34:25;1.90;;;1.10;;
42600;SDS011;28229;48.856;9.088;2022-09-09T01:39:37;2.77;;;1.33;;
42600;SDS011;28229;48.856;9.088;2022-09-09T01:42:09;1.53;;;1.00;;
42600;SDS011;28229;48.856;9.088;2022-09-09T01:44:37;1.80;;;1.20;;
42600;SDS011;28229;48.856;9.088;2022-09-09T01:47:04;2.13;;;1.37;;
42600;SDS011;28229;48.856;9.088;2022-09-09T01:49:31;0.90;;;0.90;;
42600;SDS011;28229;48.856;9.088;2022-09-09T01:52:01;4.10;;;1.30;;
42600;SDS011;28229;48.856;9.088;2022-09-09T01:54:32;1.93;;;1.37;;
42600;SDS011;28229;48.856;9.088;2022-09-09T02:00:00;1.73;;;1.10;;
42600;SDS011;28229;48.856;9.088;2022-09-09T02:05:41;2.90;;;1.13;;
42600;SDS011;28229;48.856;9.088;2022-09-09T02:08:26;1.63;;;1.20;;
42600;SDS011;28229;48.856;9.088;2022-09-09T02:14:04;2.83;;;1.10;;
42600;SDS011;28229;48.856;9.088;2022-09-09T02:19:09;1.63;;;0.97;;
42600;SDS011;28229;48.856;9.088;2022-09-09T02:21:53;1.57;;;1.33;;
42600;SDS011;28229;48.856;9.088;2022-09-09T02:24:21;2.73;;;1.10;;
42600;SDS011;28229;48.856;9.088;2022-09-09T02:26:57;3.17;;;1.37;;
42600;SDS011;28229;48.856;9.088;2022-09-09T02:29:29;1.00;;;0.90;;
42600;SDS011;28229;48.856;9.088;2022-09-09T02:31:59;4.00;;;1.20;;
42600;SDS011;28229;48.856;9.088;2022-09-09T02:34:34;1.23;;;0.93;;
42600;SDS011;28229;48.856;9.088;2022-09-09T02:37:05;1.07;;;0.97;;
42600;SDS011;28229;48.856;9.088;2022-09-09T02:39:34;2.57;;;1.20;;
42600;SDS011;28229;48.856;9.088;2022-09-09T02:42:01;2.67;;;1.20;;
42600;SDS011;28229;48.856;9.088;2022-09-09T02:44:31;2.07;;;1.00;;
42600;SDS011;28229;48.856;9.088;2022-09-09T02:50:02;2.70;;;0.90;;
42600;SDS011;28229;48.856;9.088;2022-09-09T02:58:16;1.37;;;0.90;;
42600;SDS011;28229;48.856;9.088;2022-09-09T03:00:52;1.73;;;0.90;;
42600;SDS011;28229;48.856;9.088;2022-09-09T03:03:19;2.37;;;1.20;;
42600;SDS011;28229;48.856;9.088;2022-09-09T03:05:48;1.17;;;0.90;;
42600;SDS011;28229;48.856;9.088;2022-09-09T03:08:14;1.00;;;0.90;;
42600;SDS011;28229;48.856;9.088;2022-09-09T03:10:42;1.10;;;0.80;;
42600;SDS011;28229;48.856;9.088;2022-09-09T03:13:10;3.83;;;1.10;;
42600;SDS011;28229;48.856;9.088;2022-09-09T03:15:38;2.10;;;1.10;;
42600;SDS011;28229;48.856;9.088;2022-09-09T03:18:06;1.73;;;0.93;;
42600;SDS011;28229;48.856;9.088;2022-09-09T03:20:33;2.20;;;0.90;;
42600;SDS011;28229;48.856;9.088;2022-09-09T03:22:59;2.40;;;0.73;;
42600;SDS011;28229;48.856;9.088;2022-09-09T03:25:26;1.37;;;0.80;;
42600;SDS011;28229;48.856;9.088;2022-09-09T03:27:53;2.37;;;0.90;;
42600;SDS011;28229;48.856;9.088;2022-09-09T03:30:24;3.97;;;1.07;;
42600;SDS011;28229;48.856;9.088;2022-09-09T03:32:51;1.87;;;1.00;;
42600;SDS011;28229;48.856;9.088;2022-09-09T03:35:17;2.07;;;1.10;;
42600;SDS011;28229;48.856;9.088;2022-09-09T03:37:44;3.07;;;1.10;;
42600;SDS011;28229;48.856;9.088;2022-09-09T03:40:11;3.83;;;0.93;;
42600;SDS011;28229;48.856;9.088;2022-09-09T03:42:37;1.47;;;0.80;;
42600;SDS011;28229;48.856;9.088;2022-09-09T03:45:05;3.00;;;0.80;;
42600;SDS011;28229;48.856;9.088;2022-09-09T03:47:32;1.17;;;0.73;;
42600;SDS011;28229;48.856;9.088;2022-09-09T03:50:04;3.07;;;0.90;;
42600;SDS011;28229;48.856;9.088;2022-09-09T03:52:35;1.23;;;0.70;;
42600;SDS011;28229;48.856;9.088;2022-09-09T03:55:02;2.60;;;0.90;;
42600;SDS011;28229;48.856;9.088;2022-09-09T03:57:29;1.23;;;0.73;;
42600;SDS011;28229;48.856;9.088;2022-09-09T03:59:55;2.33;;;0.90;;
42600;SDS011;28229;48.856;9.088;2022-09-09T04:02:21;1.80;;;0.93;;
42600;SDS011;28229;48.856;9.088;2022-09-09T04:04:47;2.97;;;0.90;;
42600;SDS011;28229;48.856;9.088;2022-09-09T04:07:13;1.97;;;0.90;;
42600;SDS011;28229;48.856;9.088;2022-09-09T04:09:39;1.40;;;1.00;;
42600;SDS011;28229;48.856;9.088;2022-09-09T04:12:05;1.93;;;0.90;;
42600;SDS011;28229;48.856;9.088;2022-09-09T04:14:33;3.13;;;0.70;;
42600;SDS011;28229;48.856;9.088;2022-09-09T04:16:59;1.00;;;0.90;;
42600;SDS011;28229;48.856;9.088;2022-09-09T04:19:26;1.10;;;0.90;;
42600;SDS011;28229;48.856;9.088;2022-09-09T04:21:52;2.57;;;0.90;;
42600;SDS011;28229;48.856;9.088;2022-09-09T04:24:20;1.57;;;0.70;;
42600;SDS011;28229;48.856;9.088;2022-09-09T04:26:48;0.87;;;0.80;;
42600;SDS011;28229;48.856;9.088;2022-09-09T04:29:15;2.37;;;0.80;;
42600;SDS011;28229;48.856;9.088;2022-09-09T04:31:41;0.97;;;0.70;;
42600;SDS011;28229;48.856;9.088;2022-09-09T04:34:08;1.50;;;0.80;;
42600;SDS011;28229;48.856;9.088;2022-09-09T04:36:35;1.80;;;0.90;;
42600;SDS011;28229;48.856;9.088;2022-09-09T04:39:04;1.20;;;0.97;;
42600;SDS011;28229;48.856;9.088;2022-09-09T04:41:29;1.67;;;0.93;;
42600;SDS011;28229;48.856;9.088;2022-09-09T04:43:57;2.83;;;0.93;;
42600;SDS011;28229;48.856;9.088;2022-09-09T04:46:23;2.10;;;1.00;;
42600;SDS011;28229;48.856;9.088;2022-09-09T04:48:49;2.27;;;0.90;;
42600;SDS011;28229;48.856;9.088;2022-09-09T04:51:17;1.77;;;0.90;;
42600;SDS011;28229;48.856;9.088;2022-09-09T04:53:46;2.50;;;0.90;;
42600;SDS011;28229;48.856;9.088;2022-09-09T04:56:14;1.53;;;0.90;;
42600;SDS011;28229;48.856;9.088;2022-09-09T04:58:46;1.23;;;1.00;;
42600;SDS011;28229;48.856;9.088;2022-09-09T05:01:14;2.63;;;0.90;;
42600;SDS011;28229;48.856;9.088;2022-09-09T05:03:44;2.23;;;1.00;;
42600;SDS011;28229;48.856;9.088;2022-09-09T05:06:13;2.07;;;0.93;;
42600;SDS011;28229;48.856;9.088;2022-09-09T05:08:41;1.60;;;1.20;;
42600;SDS011;28229;48.856;9.088;2022-09-09T05:13:44;3.20;;;1.20;;
42600;SDS011;28229;48.856;9.088;2022-09-09T05:16:11;1.23;;;1.00;;
42600;SDS011;28229;48.856;9.088;2022-09-09T05:18:38;1.50;;;1.10;;
42600;SDS011;28229;48.856;9.088;2022-09-09T05:21:06;1.30;;;1.00;;
42600;SDS011;28229;48.856;9.088;2022-09-09T05:23:35;2.57;;;1.17;;
42600;SDS011;28229;48.856;9.088;2022-09-09T05:26:02;1.83;;;1.20;;
42600;SDS011;28229;48.856;9.088;2022-09-09T05:28:29;2.13;;;1.03;;
42600;SDS011;28229;48.856;9.088;2022-09-09T05:31:00;1.50;;;1.13;;
42600;SDS011;28229;48.856;9.088;2022-09-09T05:33:32;1.90;;;1.10;;
42600;SDS011;28229;48.856;9.088;2022-09-09T05:36:00;3.90;;;1.43;;
42600;SDS011;28229;48.856;9.088;2022-09-09T05:38:28;2.73;;;1.20;;
42600;SDS011;28229;48.856;9.088;2022-09-09T05:40:56;2.77;;;1.03;;
42600;SDS011;28229;48.856;9.088;2022-09-09T05:43:25;3.33;;;1.20;;
42600;SDS011;28229;48.856;9.088;2022-09-09T05:46:00;6.70;;;2.10;;
42600;SDS011;28229;48.856;9.088;2022-09-09T05:48:29;2.10;;;1.17;;
42600;SDS011;28229;48.856;9.088;2022-09-09T05:50:58;3.93;;;1.20;;
42600;SDS011;28229;48.856;9.088;2022-09-09T05:53:28;2.80;;;1.10;;
42600;SDS011;28229;48.856;9.088;2022-09-09T05:56:02;2.63;;;1.23;;
42600;SDS011;28229;48.856;9.088;2022-09-09T05:58:31;2.43;;;1.03;;
42600;SDS011;28229;48.856;9.088;2022-09-09T06:01:02;1.97;;;1.20;;
42600;SDS011;28229;48.856;9.088;2022-09-09T06:03:31;1.47;;;1.30;;
42600;SDS011;28229;48.856;9.088;2022-09-09T06:05:58;1.20;;;1.10;;
42600;SDS011;28229;48.856;9.088;2022-09-09T06:08:25;2.27;;;1.30;;
42600;SDS011;28229;48.856;9.088;2022-09-09T06:10:52;5.83;;;1.20;;
42600;SDS011;28229;48.856;9.088;2022-09-09T06:13:18;1.73;;;1.20;;
42600;SDS011;28229;48.856;9.088;2022-09-09T06:15:51;5.93;;;1.10;;
42600;SDS011;28229;48.856;9.088;2022-09-09T06:18:18;2.70;;;1.40;;
42600;SDS011;28229;48.856;9.088;2022-09-09T06:20:58;5.70;;;1.23;;
42600;SDS011;28229;48.856;9.088;2022-09-09T06:23:25;3.53;;;1.30;;
42600;SDS011;28229;48.856;9.088;2022-09-09T06:25:51;3.90;;;1.07;;
42600;SDS011;28229;48.856;9.088;2022-09-09T06:28:18;1.73;;;1.07;;
42600;SDS011;28229;48.856;9.088;2022-09-09T06:30:44;2.10;;;1.00;;
42600;SDS011;28229;48.856;9.088;2022-09-09T06:33:24;4.17;;;1.10;;
42600;SDS011;28229;48.856;9.088;2022-09-09T06:35:53;1.40;;;1.13;;
42600;SDS011;28229;48.856;9.088;2022-09-09T06:38:20;5.83;;;1.13;;
42600;SDS011;28229;48.856;9.088;2022-09-09T06:40:51;4.70;;;1.30;;
42600;SDS011;28229;48.856;9.088;2022-09-09T06:43:22;3.60;;;1.17;;
42600;SDS011;28229;48.856;9.088;2022-09-09T06:45:55;1.90;;;1.10;;
42600;SDS011;28229;48.856;9.088;2022-09-09T06:48:34;2.67;;;1.00;;
42600;SDS011;28229;48.856;9.088;2022-09-09T06:51:04;1.70;;;1.10;;
42600;SDS011;28229;48.856;9.088;2022-09-09T06:53:34;2.23;;;0.90;;
42600;SDS011;28229;48.856;9.088;2022-09-09T06:56:02;3.67;;;1.10;;
42600;SDS011;28229;48.856;9.088;2022-09-09T06:58:42;3.67;;;1.60;;
42600;SDS011;28229;48.856;9.088;2022-09-09T07:01:19;1.83;;;1.20;;
42600;SDS011;28229;48.856;9.088;2022-09-09T07:03:51;5.30;;;1.10;;
42600;SDS011;28229;48.856;9.088;2022-09-09T07:06:22;3.10;;;1.03;;
42600;SDS011;28229;48.856;9.088;2022-09-09T07:08:51;4.37;;;1.10;;
42600;SDS011;28229;48.856;9.088;2022-09-09T07:11:28;2.43;;;1.00;;
42600;SDS011;28229;48.856;9.088;2022-09-09T07:13:57;4.80;;;1.50;;
42600;SDS011;28229;48.856;9.088;2022-09-09T07:16:24;2.07;;;0.90;;
42600;SDS011;28229;48.856;9.088;2022-09-09T07:18:53;2.30;;;1.13;;
42600;SDS011;28229;48.856;9.088;2022-09-09T07:21:23;4.00;;;1.50;;
42600;SDS011;28229;48.856;9.088;2022-09-09T07:23:52;3.27;;;1.17;;
42600;SDS011;28229;48.856;9.088;2022-09-09T07:26:19;2.23;;;1.30;;
42600;SDS011;28229;48.856;9.088;2022-09-09T07:28:50;1.50;;;1.07;;
42600;SDS011;28229;48.856;9.088;2022-09-09T07:31:20;3.07;;;1.13;;
42600;SDS011;28229;48.856;9.088;2022-09-09T07:33:52;2.67;;;1.30;;
42600;SDS011;28229;48.856;9.088;2022-09-09T07:36:23;2.73;;;1.00;;
42600;SDS011;28229;48.856;9.088;2022-09-09T07:38:53;1.73;;;0.90;;
42600;SDS011;28229;48.856;9.088;2022-09-09T07:41:23;3.60;;;1.20;;
42600;SDS011;28229;48.856;9.088;2022-09-09T07:43:51;1.93;;;1.10;;
42600;SDS011;28229;48.856;9.088;2022-09-09T07:46:20;2.10;;;0.97;;
42600;SDS011;28229;48.856;9.088;2022-09-09T07:48:49;3.03;;;1.10;;
42600;SDS011;28229;48.856;9.088;2022-09-09T07:51:21;1.73;;;0.87;;
42600;SDS011;28229;48.856;9.088;2022-09-09T07:53:56;2.63;;;1.33;;
42600;SDS011;28229;48.856;9.088;2022-09-09T07:56:25;2.40;;;1.00;;
42600;SDS011;28229;48.856;9.088;2022-09-09T07:58:53;2.87;;;1.33;;
42600;SDS011;28229;48.856;9.088;2022-09-09T08:01:27;2.47;;;1.23;;
42600;SDS011;28229;48.856;9.088;2022-09-09T08:03:57;4.43;;;1.37;;
42600;SDS011;28229;48.856;9.088;2022-09-09T08:06:32;3.87;;;1.30;;
42600;SDS011;28229;48.856;9.088;2022-09-09T08:09:03;3.40;;;1.20;;
42600;SDS011;28229;48.856;9.088;2022-09-09T08:11:31;5.33;;;1.40;;
42600;SDS011;28229;48.856;9.088;2022-09-09T08:14:00;2.83;;;0.90;;
42600;SDS011;28229;48.856;9.088;2022-09-09T08:16:27;2.37;;;1.13;;
42600;SDS011;28229;48.856;9.088;2022-09-09T08:18:58;5.33;;;1.30;;
42600;SDS011;28229;48.856;9.088;2022-09-09T08:21:25;2.47;;;1.23;;
42600;SDS011;28229;48.856;9.088;2022-09-09T08:24:01;1.13;;;1.00;;
42600;SDS011;28229;48.856;9.088;2022-09-09T08:26:31;2.07;;;1.00;;
42600;SDS011;28229;48.856;9.088;2022-09-09T08:29:01;2.20;;;1.07;;
42600;SDS011;28229;48.856;9.088;2022-09-09T08:31:30;1.50;;;0.87;;
42600;SDS011;28229;48.856;9.088;2022-09-09T08:33:59;2.90;;;0.90;;
42600;SDS011;28229;48.856;9.088;2022-09-09T08:36:28;3.27;;;1.10;;
42600;SDS011;28229;48.856;9.088;2022-09-09T08:38:56;2.23;;;1.03;;
42600;SDS011;28229;48.856;9.088;2022-09-09T08:41:34;1.43;;;0.90;;
42600;SDS011;28229;48.856;9.088;2022-09-09T08:44:22;2.43;;;0.90;;
42600;SDS011;28229;48.856;9.088;2022-09-09T08:46:58;1.80;;;1.00;;
42600;SDS011;28229;48.856;9.088;2022-09-09T08:52:13;2.97;;;0.90;;
42600;SDS011;28229;48.856;9.088;2022-09-09T08:54:45;3.53;;;1.10;;
42600;SDS011;28229;48.856;9.088;2022-09-09T08:57:14;3.30;;;1.17;;
42600;SDS011;28229;48.856;9.088;2022-09-09T08:59:46;2.07;;;1.17;;
42600;SDS011;28229;48.856;9.088;2022-09-09T09:02:27;1.97;;;0.90;;
42600;SDS011;28229;48.856;9.088;2022-09-09T09:05:09;3.70;;;1.20;;
42600;SDS011;28229;48.856;9.088;2022-09-09T09:10:45;1.43;;;0.77;;
42600;SDS011;28229;48.856;9.088;2022-09-09T09:13:20;2.63;;;0.80;;
42600;SDS011;28229;48.856;9.088;2022-09-09T09:16:00;3.93;;;1.10;;
42600;SDS011;28229;48.856;9.088;2022-09-09T09:18:33;1.77;;;0.90;;
42600;SDS011;28229;48.856;9.088;2022-09-09T09:23:40;2.93;;;1.13;;
42600;SDS011;28229;48.856;9.088;2022-09-09T09:26:11;1.50;;;0.90;;
42600;SDS011;28229;48.856;9.088;2022-09-09T09:28:38;3.13;;;1.17;;
42600;SDS011;28229;48.856;9.088;2022-09-09T09:31:11;2.10;;;0.90;;
42600;SDS011;28229;48.856;9.088;2022-09-09T09:33:51;3.27;;;1.00;;
42600;SDS011;28229;48.856;9.088;2022-09-09T09:36:39;2.10;;;0.93;;
42600;SDS011;28229;48.856;9.088;2022-09-09T09:39:10;4.97;;;1.20;;
42600;SDS011;28229;48.856;9.088;2022-09-09T09:41:41;3.40;;;1.20;;
42600;SDS011;28229;48.856;9.088;2022-09-09T09:44:22;1.37;;;1.13;;
42600;SDS011;28229;48.856;9.088;2022-09-09T09:46:51;2.63;;;1.30;;
42600;SDS011;28229;48.856;9.088;2022-09-09T09:49:17;2.17;;;1.10;;
42600;SDS011;28229;48.856;9.088;2022-09-09T09:51:44;3.67;;;1.00;;
42600;SDS011;28229;48.856;9.088;2022-09-09T09:56:39;2.93;;;1.00;;
42600;SDS011;28229;48.856;9.088;2022-09-09T10:01:48;3.47;;;1.00;;
42600;SDS011;28229;48.856;9.088;2022-09-09T10:04:15;1.70;;;1.07;;
42600;SDS011;28229;48.856;9.088;2022-09-09T10:06:44;2.10;;;0.83;;
42600;SDS011;28229;48.856;9.088;2022-09-09T10:17:14;1.37;;;0.90;;
42600;SDS011;28229;48.856;9.088;2022-09-09T10:23:01;6.80;;;1.30;;
42600;SDS011;28229;48.856;9.088;2022-09-09T10:26:10;2.37;;;1.03;;
42600;SDS011;28229;48.856;9.088;2022-09-09T10:28:51;1.77;;;0.80;;
42600;SDS011;28229;48.856;9.088;2022-09-09T10:34:11;2.60;;;0.97;;
42600;SDS011;28229;48.856;9.088;2022-09-09T10:36:49;4.03;;;1.20;;
42600;SDS011;28229;48.856;9.088;2022-09-09T10:39:34;3.83;;;1.10;;
42600;SDS011;28229;48.856;9.088;2022-09-09T10:42:07;2.10;;;0.80;;
42600;SDS011;28229;48.856;9.088;2022-09-09T10:47:23;3.67;;;1.07;;
42600;SDS011;28229;48.856;9.088;2022-09-09T10:52:52;2.97;;;0.90;;
42600;SDS011;28229;48.856;9.088;2022-09-09T10:55:39;4.27;;;1.00;;
42600;SDS011;28229;48.856;9.088;2022-09-09T10:58:10;2.67;;;0.93;;
42600;SDS011;28229;48.856;9.088;2022-09-09T11:00:42;1.90;;;0.93;;
42600;SDS011;28229;48.856;9.088;2022-09-09T11:03:16;2.07;;;0.90;;
42600;SDS011;28229;48.856;9.088;2022-09-09T11:05:58;1.77;;;0.90;;
42600;SDS011;28229;48.856;9.088;2022-09-09T11:08:30;2.33;;;1.00;;
42600;SDS011;28229;48.856;9.088;2022-09-09T11:11:03;1.57;;;0.90;;
42600;SDS011;28229;48.856;9.088;2022-09-09T11:13:38;3.10;;;1.10;;
42600;SDS011;28229;48.856;9.088;2022-09-09T11:22:00;2.17;;;0.83;;
42600;SDS011;28229;48.856;9.088;2022-09-09T11:24:37;1.73;;;1.00;;
42600;SDS011;28229;48.856;9.088;2022-09-09T11:27:21;3.47;;;0.90;;
42600;SDS011;28229;48.856;9.088;2022-09-09T11:41:08;1.47;;;0.63;;
42600;SDS011;28229;48.856;9.088;2022-09-09T11:46:07;1.13;;;0.70;;
42600;SDS011;28229;48.856;9.088;2022-09-09T11:48:36;5.20;;;1.00;;
42600;SDS011;28229;48.856;9.088;2022-09-09T11:51:08;2.50;;;0.77;;
42600;SDS011;28229;48.856;9.088;2022-09-09T11:53:47;2.57;;;0.57;;
42600;SDS011;28229;48.856;9.088;2022-09-09T11:59:22;1.93;;;0.60;;
42600;SDS011;28229;48.856;9.088;2022-09-09T12:02:08;1.27;;;0.60;;
42600;SDS011;28229;48.856;9.088;2022-09-09T12:04:53;1.03;;;0.40;;
42600;SDS011;28229;48.856;9.088;2022-09-09T12:07:33;0.70;;;0.50;;
42600;SDS011;28229;48.856;9.088;2022-09-09T12:12:48;0.60;;;0.50;;
42600;SDS011;28229;48.856;9.088;2022-09-09T12:15:18;0.50;;;0.40;;
42600;SDS011;28229;48.856;9.088;2022-09-09T12:17:58;1.03;;;0.47;;
42600;SDS011;28229;48.856;9.088;2022-09-09T12:20:36;1.27;;;0.60;;
42600;SDS011;28229;48.856;9.088;2022-09-09T12:31:10;2.27;;;0.63;;
42600;SDS011;28229;48.856;9.088;2022-09-09T12:33:48;1.23;;;0.70;;
42600;SDS011;28229;48.856;9.088;2022-09-09T12:36:15;1.00;;;0.80;;
42600;SDS011;28229;48.856;9.088;2022-09-09T12:38:44;0.60;;;0.60;;
42600;SDS011;28229;48.856;9.088;2022-09-09T12:41:21;1.80;;;0.80;;
42600;SDS011;28229;48.856;9.088;2022-09-09T12:44:06;1.40;;;0.70;;
42600;SDS011;28229;48.856;9.088;2022-09-09T12:49:05;1.70;;;0.70;;
42600;SDS011;28229;48.856;9.088;2022-09-09T12:51:52;1.97;;;0.60;;
42600;SDS011;28229;48.856;9.088;2022-09-09T12:54:19;1.43;;;0.70;;
42600;SDS011;28229;48.856;9.088;2022-09-09T12:56:46;3.87;;;0.60;;
42600;SDS011;28229;48.856;9.088;2022-09-09T12:59:26;1.43;;;0.70;;
42600;SDS011;28229;48.856;9.088;2022-09-09T13:02:01;1.20;;;0.60;;
42600;SDS011;28229;48.856;9.088;2022-09-09T13:04:27;1.17;;;0.63;;
42600;SDS011;28229;48.856;9.088;2022-09-09T13:06:53;3.23;;;0.73;;
42600;SDS011;28229;48.856;9.088;2022-09-09T13:09:19;3.70;;;0.83;;
42600;SDS011;28229;48.856;9.088;2022-09-09T13:11:52;0.97;;;0.60;;
42600;SDS011;28229;48.856;9.088;2022-09-09T13:14:26;1.53;;;0.90;;
42600;SDS011;28229;48.856;9.088;2022-09-09T13:16:56;3.00;;;0.87;;
42600;SDS011;28229;48.856;9.088;2022-09-09T13:19:35;0.57;;;0.50;;
42600;SDS011;28229;48.856;9.088;2022-09-09T13:22:13;0.87;;;0.50;;
42600;SDS011;28229;48.856;9.088;2022-09-09T13:24:44;0.60;;;0.60;;
42600;SDS011;28229;48.856;9.088;2022-09-09T13:27:23;0.97;;;0.70;;
42600;SDS011;28229;48.856;9.088;2022-09-09T13:29:53;1.63;;;0.50;;
42600;SDS011;28229;48.856;9.088;2022-09-09T13:32:21;1.43;;;0.60;;
42600;SDS011;28229;48.856;9.088;2022-09-09T13:34:51;1.30;;;0.60;;
42600;SDS011;28229;48.856;9.088;2022-09-09T13:37:26;1.00;;;0.67;;
42600;SDS011;28229;48.856;9.088;2022-09-09T13:40:04;2.13;;;0.80;;
42600;SDS011;28229;48.856;9.088;2022-09-09T13:42:32;1.20;;;0.60;;
42600;SDS011;28229;48.856;9.088;2022-09-09T13:45:04;1.33;;;0.60;;
42600;SDS011;28229;48.856;9.088;2022-09-09T13:47:34;1.70;;;0.60;;
42600;SDS011;28229;48.856;9.088;2022-09-09T13:50:20;2.47;;;0.70;;
42600;SDS011;28229;48.856;9.088;2022-09-09T13:52:50;1.63;;;0.70;;
42600;SDS011;28229;48.856;9.088;2022-09-09T13:55:19;1.67;;;0.50;;
42600;SDS011;28229;48.856;9.088;2022-09-09T13:57:50;1.70;;;0.70;;
42600;SDS011;28229;48.856;9.088;2022-09-09T14:00:18;1.63;;;0.73;;
42600;SDS011;28229;48.856;9.088;2022-09-09T14:02:44;0.73;;;0.47;;
42600;SDS011;28229;48.856;9.088;2022-09-09T14:05:10;1.80;;;0.67;;
42600;SDS011;28229;48.856;9.088;2022-09-09T14:07:37;2.77;;;0.83;;
42600;SDS011;28229;48.856;9.088;2022-09-09T14:10:05;2.10;;;0.70;;
42600;SDS011;28229;48.856;9.088;2022-09-09T14:12:32;2.47;;;0.70;;
42600;SDS011;28229;48.856;9.088;2022-09-09T14:14:58;2.13;;;0.90;;
42600;SDS011;28229;48.856;9.088;2022-09-09T14:17:25;0.63;;;0.60;;
42600;SDS011;28229;48.856;9.088;2022-09-09T14:19:54;2.67;;;0.80;;
42600;SDS011;28229;48.856;9.088;2022-09-09T14:22:21;1.90;;;0.77;;
42600;SDS011;28229;48.856;9.088;2022-09-09T14:24:47;1.47;;;0.60;;
42600;SDS011;28229;48.856;9.088;2022-09-09T14:27:14;1.50;;;0.90;;
42600;SDS011;28229;48.856;9.088;2022-09-09T14:29:40;1.37;;;0.80;;
42600;SDS011;28229;48.856;9.088;2022-09-09T14:32:06;2.20;;;0.80;;
42600;SDS011;28229;48.856;9.088;2022-09-09T14:34:33;2.30;;;0.67;;
42600;SDS011;28229;48.856;9.088;2022-09-09T14:37:00;1.67;;;0.60;;
42600;SDS011;28229;48.856;9.088;2022-09-09T14:39:26;1.83;;;0.67;;
42600;SDS011;28229;48.856;9.088;2022-09-09T14:41:52;2.37;;;0.80;;
42600;SDS011;28229;48.856;9.088;2022-09-09T14:44:18;1.63;;;0.50;;
42600;SDS011;28229;48.856;9.088;2022-09-09T14:46:44;1.80;;;0.70;;
42600;SDS011;28229;48.856;9.088;2022-09-09T14:49:10;2.83;;;0.73;;
42600;SDS011;28229;48.856;9.088;2022-09-09T14:51:36;2.17;;;0.70;;
42600;SDS011;28229;48.856;9.088;2022-09-09T14:54:02;0.93;;;0.57;;
42600;SDS011;28229;48.856;9.088;2022-09-09T14:56:29;0.97;;;0.53;;
42600;SDS011;28229;48.856;9.088;2022-09-09T14:58:57;2.60;;;0.90;;
42600;SDS011;28229;48.856;9.088;2022-09-09T15:01:26;1.00;;;0.50;;
42600;SDS011;28229;48.856;9.088;2022-09-09T15:03:57;1.33;;;0.60;;
42600;SDS011;28229;48.856;9.088;2022-09-09T15:06:25;1.40;;;0.50;;
42600;SDS011;28229;48.856;9.088;2022-09-09T15:08:52;1.17;;;0.60;;
42600;SDS011;28229;48.856;9.088;2022-09-09T15:11:19;2.00;;;0.60;;
42600;SDS011;28229;48.856;9.088;2022-09-09T15:13:46;1.13;;;0.63;;
42600;SDS011;28229;48.856;9.088;2022-09-09T15:16:13;1.07;;;0.53;;
42600;SDS011;28229;48.856;9.088;2022-09-09T15:18:41;0.53;;;0.43;;
42600;SDS011;28229;48.856;9.088;2022-09-09T15:21:09;0.20;;;0.20;;
42600;SDS011;28229;48.856;9.088;2022-09-09T15:23:42;0.83;;;0.50;;
42600;SDS011;28229;48.856;9.088;2022-09-09T15:26:10;1.07;;;0.57;;
42600;SDS011;28229;48.856;9.088;2022-09-09T15:28:36;1.10;;;0.70;;
42600;SDS011;28229;48.856;9.088;2022-09-09T15:31:08;1.33;;;0.50;;
42600;SDS011;28229;48.856;9.088;2022-09-09T15:33:35;1.53;;;0.60;;
42600;SDS011;28229;48.856;9.088;2022-09-09T15:36:13;1.10;;;0.60;;
42600;SDS011;28229;48.856;9.088;2022-09-09T15:38:47;0.63;;;0.50;;
42600;SDS011;28229;48.856;9.088;2022-09-09T15:41:14;1.20;;;0.60;;
42600;SDS011;28229;48.856;9.088;2022-09-09T15:43:44;1.30;;;0.60;;
42600;SDS011;28229;48.856;9.088;2022-09-09T15:49:06;1.63;;;0.50;;
42600;SDS011;28229;48.856;9.088;2022-09-09T15:51:36;0.70;;;0.50;;
42600;SDS011;28229;48.856;9.088;2022-09-09T15:54:04;1.47;;;0.70;;
42600;SDS011;28229;48.856;9.088;2022-09-09T15:56:30;2.17;;;0.70;;
42600;SDS011;28229;48.856;9.088;2022-09-09T15:58:57;1.20;;;0.63;;
42600;SDS011;28229;48.856;9.088;2022-09-09T16:01:24;1.07;;;0.70;;
42600;SDS011;28229;48.856;9.088;2022-09-09T16:03:52;1.07;;;0.53;;
42600;SDS011;28229;48.856;9.088;2022-09-09T16:06:19;1.57;;;0.70;;
42600;SDS011;28229;48.856;9.088;2022-09-09T16:08:48;2.07;;;0.70;;
42600;SDS011;28229;48.856;9.088;2022-09-09T16:11:16;1.07;;;0.63;;
42600;SDS011;28229;48.856;9.088;2022-09-09T16:13:45;0.93;;;0.70;;
42600;SDS011;28229;48.856;9.088;2022-09-09T16:16:13;1.80;;;0.60;;
42600;SDS011;28229;48.856;9.088;2022-09-09T16:18:41;2.00;;;0.40;;
42600;SDS011;28229;48.856;9.088;2022-09-09T16:21:11;0.90;;;0.20;;
42600;SDS011;28229;48.856;9.088;2022-09-09T16:23:46;2.60;;;0.50;;
42600;SDS011;28229;48.856;9.088;2022-09-09T16:26:14;0.20;;;0.20;;
42600;SDS011;28229;48.856;9.088;2022-09-09T16:28:41;0.83;;;0.40;;
42600;SDS011;28229;48.856;9.088;2022-09-09T16:31:08;0.70;;;0.40;;
42600;SDS011;28229;48.856;9.088;2022-09-09T16:33:39;0.93;;;0.50;;
42600;SDS011;28229;48.856;9.088;2022-09-09T16:36:06;0.57;;;0.30;;
42600;SDS011;28229;48.856;9.088;2022-09-09T16:38:33;0.67;;;0.20;;
42600;SDS011;28229;48.856;9.088;2022-09-09T16:41:01;0.77;;;0.33;;
42600;SDS011;28229;48.856;9.088;2022-09-09T16:43:28;0.70;;;0.50;;
42600;SDS011;28229;48.856;9.088;2022-09-09T16:45:54;3.13;;;0.87;;
42600;SDS011;28229;48.856;9.088;2022-09-09T16:48:19;0.63;;;0.63;;
42600;SDS011;28229;48.856;9.088;2022-09-09T16:50:45;0.70;;;0.70;;
42600;SDS011;28229;48.856;9.088;2022-09-09T16:53:11;0.80;;;0.43;;
42600;SDS011;28229;48.856;9.088;2022-09-09T16:55:41;1.40;;;0.40;;
42600;SDS011;28229;48.856;9.088;2022-09-09T16:58:10;0.30;;;0.30;;
42600;SDS011;28229;48.856;9.088;2022-09-09T17:00:36;0.40;;;0.40;;
42600;SDS011;28229;48.856;9.088;2022-09-09T17:03:02;1.17;;;0.50;;
42600;SDS011;28229;48.856;9.088;2022-09-09T17:05:28;0.43;;;0.43;;